Flight Track Log - Related Links

Times and Time Zones

All times are in EST time to prevent confusion due to time zone crossing. See the N830QS flight status page for this flight to view local times or setup timezone preferences in your user account.

Time Position Orientation Groundspeed Altitude Reporting Facility
EST Latitude Longitude Course Direction KTS MPH feet Rate Location/Type
Fri 10:13:36 AM 40.8000 -73.4000 231° Southwest 221 254 2,200  Level New York TRACON
Fri 10:14:30 AM 40.8500 -73.3667 27° Northeast 233 268 2,900 421 Climbing New York TRACON
Fri 10:15:30 AM 40.9000 -73.3167 37° Northeast 227 261 3,000 48 Climbing New York TRACON
Fri 10:16:36 AM 40.9667 -73.2833 21° North 234 269 3,000  Level New York TRACON
Fri 10:17:36 AM 41.0333 -73.3000 349° North 218 251 3,000  Level New York TRACON
Fri 10:18:36 AM 41.0667 -73.3500 311° West 204 235 3,000  Level New York TRACON
Fri 10:19:00 AM 41.0669 -73.7076 231° Southwest  Level Estimated
Fri 10:19:30 AM 41.1000 -73.4000 312° West 200 230 3,000  Level New York TRACON
Fri 10:20:36 AM 41.1500 -73.4667 315° West 203 234 3,000  Level New York TRACON
Fri 10:21:36 AM 41.1833 -73.5167 312° West 191 220 3,000  Level New York TRACON
Fri 10:22:36 AM 41.2000 -73.5667 294° West 182 209 3,000  Level New York TRACON
Fri 10:23:42 AM 41.2333 -73.6333 304° West 189 217 3,000  Level New York TRACON
Fri 10:24:36 AM 41.2500 -73.7000 288° West 186 214 3,000  Level New York TRACON
Fri 10:25:36 AM 41.2667 -73.7500 294° West 182 209 3,000  Level New York TRACON
Fri 10:26:36 AM 41.2333 -73.7833 217° Southwest 174 200 3,000 -350 Level New York TRACON
Fri 10:27:36 AM 41.1833 -73.7833 180° South 199 229 2,300 -600 Descending New York TRACON
Fri 10:28:36 AM 41.1333 -73.7500 153° Southeast 175 201 1,800 -632 Descending New York TRACON
Fri 10:29:30 AM 41.1000 -73.7333 159° South 117 135 1,100 -778 Descending New York TRACON
Fri 10:31:00 AM 41.0667 -73.7000 152° Southeast  Level FlightAware Approximate
Fri 10:38:00 AM 41.0669 -73.7076 152° Southeast  Level Estimated
Fri 10:39:00 AM 41.0667 -73.7000 152° Southeast  Level FlightAware Approximate

Login

Don't have an account? Register now (free) for customized features, flight alerts, and more!